Time;durP1;ratioP1;P1;durP2;ratioP2;P2;SDS_P1;SDS_P2;PMS_P1;PMS_P2;Temp;Humidity;BMP_temperature;BMP_pressure;BME280_temperature;BME280_humidity;BME280_pressure;Samples;Min_cycle;Max_cycle;Signal;HPM_P1;HPM_P2
2022/07/01 00:02:02;;;;;;;;;;;;;;;18.69;100.00;97711.08;1688866;83;20214;-87
2022/07/01 00:04:28;;;;;;;;;;;;;;;18.67;100.00;97705.13;1689612;84;20185;-84
2022/07/01 00:06:54;;;;;;;;;;;;;;;18.68;100.00;97709.48;1689498;85;20341;-87
2022/07/01 00:09:20;;;;;;;;;;;;;;;18.64;100.00;97715.40;1689842;85;21145;-84
2022/07/01 00:11:46;;;;;;;;;;;;;;;18.61;100.00;97714.91;1688803;85;20450;-87
2022/07/01 00:14:12;;;;;;;;;;;;;;;18.58;100.00;97714.23;1687306;85;20241;-87
2022/07/01 00:16:37;;;;;;;;;;;;;;;18.58;100.00;97706.00;1689595;84;20268;-84
2022/07/01 00:19:03;;;;;;;;;;;;;;;18.57;100.00;97709.89;1690124;85;20174;-87
2022/07/01 00:21:29;;;;;;;;;;;;;;;18.57;100.00;97708.52;1686590;85;21126;-87
2022/07/01 00:23:55;;;;;;;;;;;;;;;18.60;100.00;97707.83;1689643;83;20295;-87
2022/07/01 00:26:21;;;;;;;;;;;;;;;18.65;100.00;97713.71;1689767;85;20223;-87
2022/07/01 00:28:47;;;;;;;;;;;;;;;18.67;100.00;97711.42;1689622;83;20232;-87
2022/07/01 00:31:12;;;;;;;;;;;;;;;18.67;100.00;97710.05;1689873;84;20188;-88
2022/07/01 00:33:38;;;;;;;;;;;;;;;18.67;100.00;97703.77;1685899;84;21110;-83
2022/07/01 00:36:04;;;;;;;;;;;;;;;18.66;100.00;97702.96;1668738;85;20437;-84
2022/07/01 00:38:30;;;;;;;;;;;;;;;18.63;100.00;97694.02;1687312;83;20200;-87
2022/07/01 00:40:56;;;;;;;;;;;;;;;18.62;100.00;97692.39;1689717;84;20767;-88
2022/07/01 00:43:25;;;;;;;;;;;;;;;18.61;100.00;97699.02;1689578;83;20728;-87
2022/07/01 00:45:51;;;;;;;;;;;;;;;18.59;100.00;97694.45;1646826;85;21087;-87
2022/07/01 00:48:19;;;;;;;;;;;;;;;18.55;100.00;97693.54;1684291;83;20198;-87
2022/07/01 00:50:44;;;;;;;;;;;;;;;18.54;100.00;97687.80;1689635;85;20171;-84
2022/07/01 00:53:12;;;;;;;;;;;;;;;18.54;100.00;97685.88;1689561;83;20259;-84
2022/07/01 00:55:37;;;;;;;;;;;;;;;18.54;100.00;97684.52;1689757;84;20170;-83
2022/07/01 00:58:03;;;;;;;;;;;;;;;18.51;100.00;97686.54;1689568;83;21794;-84
2022/07/01 01:00:29;;;;;;;;;;;;;;;18.48;100.00;97686.43;1689504;85;20330;-87
2022/07/01 01:02:55;;;;;;;;;;;;;;;18.46;100.00;97684.61;1687070;84;20312;-83
2022/07/01 01:05:21;;;;;;;;;;;;;;;18.44;100.00;97687.66;1685889;83;20211;-84
2022/07/01 01:07:48;;;;;;;;;;;;;;;18.42;100.00;97684.47;1689821;84;20202;-84
2022/07/01 01:10:14;;;;;;;;;;;;;;;18.41;100.00;97682.06;1689624;85;21812;-83
2022/07/01 01:12:40;;;;;;;;;;;;;;;18.39;100.00;97678.30;1689472;85;20473;-83
2022/07/01 01:15:07;;;;;;;;;;;;;;;18.33;100.00;97668.09;1689550;84;20221;-87
2022/07/01 01:17:33;;;;;;;;;;;;;;;18.28;100.00;97667.50;1687909;85;20295;-87
2022/07/01 01:19:58;;;;;;;;;;;;;;;18.28;100.00;97675.73;1688310;84;20188;-84
2022/07/01 01:22:24;;;;;;;;;;;;;;;18.25;100.00;97675.84;1689376;83;21066;-84
2022/07/01 01:24:50;;;;;;;;;;;;;;;18.23;100.00;97680.07;1689590;85;20173;-87
2022/07/01 01:27:20;;;;;;;;;;;;;;;18.19;100.00;97670.90;1689610;83;20243;-87
2022/07/01 01:29:43;;;;;;;;;;;;;;;18.19;100.00;97676.38;1686620;84;20143;-84
2022/07/01 01:32:09;;;;;;;;;;;;;;;18.15;100.00;97675.47;1689462;85;20249;-88
2022/07/01 01:34:38;;;;;;;;;;;;;;;18.15;100.00;97682.33;1686864;84;21092;-84
2022/07/01 01:37:04;;;;;;;;;;;;;;;18.12;100.00;97684.37;1689403;83;20168;-87
2022/07/01 01:39:30;;;;;;;;;;;;;;;18.08;100.00;97684.23;1689767;84;20479;-84
2022/07/01 01:41:56;;;;;;;;;;;;;;;18.08;100.00;97684.80;1689677;83;20188;-86
2022/07/01 01:44:22;;;;;;;;;;;;;;;18.08;100.00;97693.03;1689819;84;20255;-84
2022/07/01 01:46:47;;;;;;;;;;;;;;;18.08;100.00;97690.28;1688765;83;21020;-86
2022/07/01 01:49:13;;;;;;;;;;;;;;;18.04;100.00;97689.60;1685894;85;20755;-87
2022/07/01 01:51:39;;;;;;;;;;;;;;;18.05;100.00;97684.91;1654651;85;20182;-86
2022/07/01 01:54:05;;;;;;;;;;;;;;;18.03;100.00;97683.89;1689723;85;20218;-87
2022/07/01 01:56:31;;;;;;;;;;;;;;;18.03;100.00;97685.26;1666627;84;20271;-87
2022/07/01 01:58:57;;;;;;;;;;;;;;;18.00;100.00;97686.48;1689590;83;21736;-83
2022/07/01 02:01:23;;;;;;;;;;;;;;;17.96;100.00;97695.16;1689438;85;20452;-84
2022/07/01 02:03:50;;;;;;;;;;;;;;;17.92;100.00;97697.75;1689717;85;20277;-83
2022/07/01 02:06:16;;;;;;;;;;;;;;;17.88;100.00;97700.94;1687566;84;20202;-83
2022/07/01 02:08:42;;;;;;;;;;;;;;;17.80;100.00;97696.33;1702782;83;20331;-83
2022/07/01 02:11:08;;;;;;;;;;;;;;;17.76;100.00;97702.23;1691734;83;21037;-83
2022/07/01 02:13:34;;;;;;;;;;;;;;;17.75;100.00;97694.58;1689480;83;20759;-84
2022/07/01 02:15:59;;;;;;;;;;;;;;;17.79;100.00;97702.95;1670336;85;20204;-83
2022/07/01 02:18:25;;;;;;;;;;;;;;;17.81;100.00;97697.93;1686223;83;20248;-84
2022/07/01 02:20:51;;;;;;;;;;;;;;;17.84;100.00;97700.56;1689936;84;20164;-84
2022/07/01 02:23:17;;;;;;;;;;;;;;;17.85;100.00;97699.42;1689395;83;21790;-84
2022/07/01 02:25:42;;;;;;;;;;;;;;;17.83;100.00;97703.87;1689515;83;20171;-84
2022/07/01 02:28:09;;;;;;;;;;;;;;;17.83;100.00;97701.13;1665868;84;20224;-84
2022/07/01 02:30:37;;;;;;;;;;;;;;;17.83;100.00;97707.18;1677927;84;20208;-84
2022/07/01 02:33:05;;;;;;;;;;;;;;;17.84;100.00;97710.15;1689898;85;20136;-87
2022/07/01 02:35:32;;;;;;;;;;;;;;;17.83;100.00;97703.87;1689906;85;21062;-87
2022/07/01 02:37:58;;;;;;;;;;;;;;;17.83;100.00;97708.55;1689770;85;20475;-87
2022/07/01 02:40:23;;;;;;;;;;;;;;;17.79;100.00;97713.91;1685223;84;20737;-83
2022/07/01 02:42:49;;;;;;;;;;;;;;;17.75;100.00;97718.44;1688222;83;20164;-86
2022/07/01 02:45:15;;;;;;;;;;;;;;;17.69;100.00;97716.45;1689836;84;20255;-87
2022/07/01 02:47:41;;;;;;;;;;;;;;;17.65;100.00;97715.50;1687344;84;21951;-87
2022/07/01 02:50:08;;;;;;;;;;;;;;;17.59;100.00;97718.19;1686504;85;21028;-87
2022/07/01 02:52:34;;;;;;;;;;;;;;;17.52;100.00;97716.56;1687820;83;20220;-84
2022/07/01 02:55:01;;;;;;;;;;;;;;;17.49;100.00;97715.27;1689798;85;20526;-83
2022/07/01 02:57:26;;;;;;;;;;;;;;;17.47;100.00;97717.55;1687902;84;20155;-83
2022/07/01 02:59:53;;;;;;;;;;;;;;;17.46;100.00;97714.58;1687223;85;21116;-88
2022/07/01 03:02:19;;;;;;;;;;;;;;;17.47;100.00;97715.37;1676579;85;20563;-87
2022/07/01 03:04:46;;;;;;;;;;;;;;;17.43;100.00;97724.84;1663649;84;20175;-83
2022/07/01 03:07:11;;;;;;;;;;;;;;;17.38;100.00;97721.48;1670617;84;20554;-87
2022/07/01 03:09:39;;;;;;;;;;;;;;;17.35;100.00;97717.47;1664071;84;20205;-83
2022/07/01 03:12:24;;;;;;;;;;;;;;;17.36;100.00;97718.28;1688500;85;21195;-87
2022/07/01 03:14:34;;;;;;;;;;;;;;;17.37;100.00;97722.61;1684871;85;20879;-83
2022/07/01 03:17:00;;;;;;;;;;;;;;;17.36;100.00;97728.66;1654239;85;20288;-87
2022/07/01 03:19:25;;;;;;;;;;;;;;;17.34;100.00;97725.99;1686546;84;20496;-87
2022/07/01 03:21:51;;;;;;;;;;;;;;;17.28;100.00;97727.34;1689717;83;20192;-88
2022/07/01 03:24:17;;;;;;;;;;;;;;;17.27;100.00;97723.80;1689772;85;21083;-83
2022/07/01 03:26:43;;;;;;;;;;;;;;;17.28;100.00;97721.86;1684023;84;20208;-88
2022/07/01 03:29:09;;;;;;;;;;;;;;;17.29;100.00;97717.42;1659840;85;20154;-87
2022/07/01 03:31:35;;;;;;;;;;;;;;;17.34;100.00;97724.63;1689720;84;20475;-84
2022/07/01 03:34:01;;;;;;;;;;;;;;;17.36;100.00;97725.92;1689847;85;20552;-83
2022/07/01 03:36:26;;;;;;;;;;;;;;;17.38;100.00;97719.54;1689746;85;21101;-83
2022/07/01 03:38:52;;;;;;;;;;;;;;;17.43;100.00;97721.27;1689580;83;20192;-83
2022/07/01 03:41:18;;;;;;;;;;;;;;;17.44;100.00;97717.42;1689849;85;20172;-82
2022/07/01 03:43:44;;;;;;;;;;;;;;;17.49;100.00;97719.38;1689645;83;20235;-84
2022/07/01 03:46:12;;;;;;;;;;;;;;;17.56;100.00;97720.23;1689409;84;20736;-87
2022/07/01 03:48:37;;;;;;;;;;;;;;;17.66;100.00;97725.31;1685888;84;21240;-83
2022/07/01 03:51:03;;;;;;;;;;;;;;;17.80;99.87;97725.10;1686517;83;20179;-88
2022/07/01 03:56:13;;;;;;;;;;;;;;;17.97;99.32;97726.91;1689902;85;20249;-87
2022/07/01 03:58:39;;;;;;;;;;;;;;;18.10;99.17;97728.56;1689679;83;20164;-87
2022/07/01 04:01:04;;;;;;;;;;;;;;;18.22;98.95;97738.80;1689668;84;21100;-84
2022/07/01 04:03:30;;;;;;;;;;;;;;;18.30;98.21;97736.55;1689418;83;20764;-88
2022/07/01 04:05:56;;;;;;;;;;;;;;;18.39;97.93;97742.75;1689436;84;20261;-83
2022/07/01 04:08:22;;;;;;;;;;;;;;;18.49;97.63;97740.95;1638248;86;20208;-84
2022/07/01 04:10:49;;;;;;;;;;;;;;;18.55;97.44;97742.92;1681835;85;20191;-83
2022/07/01 04:13:15;;;;;;;;;;;;;;;18.69;97.18;97737.95;1689543;83;21061;-83
2022/07/01 04:15:40;;;;;;;;;;;;;;;18.70;96.95;97739.55;1686520;84;21561;-83
2022/07/01 04:18:06;;;;;;;;;;;;;;;18.81;96.50;97741.31;1666252;84;20703;-88
2022/07/01 04:20:32;;;;;;;;;;;;;;;18.89;96.53;97744.53;1677406;85;20748;-88
2022/07/01 04:22:58;;;;;;;;;;;;;;;19.04;96.63;97747.16;1689521;84;20273;-88
2022/07/01 04:25:23;;;;;;;;;;;;;;;19.05;94.92;97746.02;1678157;84;21703;-84
2022/07/01 04:27:49;;;;;;;;;;;;;;;19.01;94.66;97748.66;1677241;84;20548;-87
2022/07/01 04:30:15;;;;;;;;;;;;;;;19.01;94.28;97747.28;1688853;85;20370;-83
2022/07/01 04:32:41;;;;;;;;;;;;;;;19.04;94.11;97749.33;1689765;85;20345;-88
2022/07/01 04:35:07;;;;;;;;;;;;;;;19.15;94.32;97741.47;1689812;85;20200;-84
2022/07/01 04:37:33;;;;;;;;;;;;;;;19.18;94.13;97738.03;1701344;83;21137;-84
2022/07/01 04:39:59;;;;;;;;;;;;;;;19.29;93.69;97740.54;1689700;84;20185;-89
2022/07/01 04:42:25;;;;;;;;;;;;;;;19.37;93.22;97739.63;1689800;85;20277;-88
2022/07/01 04:44:51;;;;;;;;;;;;;;;19.43;92.70;97734.72;1685409;85;20292;-87
2022/07/01 04:47:16;;;;;;;;;;;;;;;19.45;92.76;97734.59;1658863;85;20327;-88
2022/07/01 04:49:42;;;;;;;;;;;;;;;19.56;92.69;97734.95;1666971;84;20781;-84
2022/07/01 04:52:08;;;;;;;;;;;;;;;19.70;92.39;97742.27;1689684;85;20193;-84
2022/07/01 04:54:34;;;;;;;;;;;;;;;19.79;92.08;97738.02;1689990;85;20211;-84
2022/07/01 04:56:59;;;;;;;;;;;;;;;19.98;92.77;97729.94;1680523;85;20168;-84
2022/07/01 04:59:25;;;;;;;;;;;;;;;20.16;92.29;97740.66;1662903;84;20200;-85
2022/07/01 05:01:51;;;;;;;;;;;;;;;20.37;91.90;97743.23;1689512;83;21149;-84
2022/07/01 05:04:17;;;;;;;;;;;;;;;20.41;89.87;97737.24;1693231;84;20244;-89
2022/07/01 05:06:43;;;;;;;;;;;;;;;20.51;90.48;97729.91;1688957;83;20181;-88
2022/07/01 05:09:09;;;;;;;;;;;;;;;20.64;90.47;97732.81;1689969;84;20439;-84
2022/07/01 05:11:35;;;;;;;;;;;;;;;20.83;90.42;97734.30;1695371;83;20216;-85
2022/07/01 05:14:00;;;;;;;;;;;;;;;20.98;89.83;97738.80;1690139;85;21988;-89
2022/07/01 05:16:26;;;;;;;;;;;;;;;21.08;88.76;97739.06;1689911;85;20199;-84
2022/07/01 05:24:21;;;;;;;;;;;;;;;21.24;85.56;97738.27;1692476;84;20465;-84
2022/07/01 05:26:46;;;;;;;;;;;;;;;21.24;84.98;97728.63;1689913;83;20724;-84
2022/07/01 05:29:12;;;;;;;;;;;;;;;21.27;84.38;97724.60;1689961;84;20204;-84
2022/07/01 05:31:38;;;;;;;;;;;;;;;21.35;83.85;97723.62;1666696;83;20180;-83
2022/07/01 05:34:03;;;;;;;;;;;;;;;21.36;84.05;97725.24;1689824;83;20168;-84
2022/07/01 05:36:29;;;;;;;;;;;;;;;21.39;84.65;97723.14;1692375;84;20182;-83
2022/07/01 05:38:55;;;;;;;;;;;;;;;21.56;84.10;97721.95;1689660;85;21990;-89
2022/07/01 05:41:21;;;;;;;;;;;;;;;21.70;84.54;97718.70;1689103;83;20289;-85
2022/07/01 05:43:47;;;;;;;;;;;;;;;21.89;82.87;97718.77;1689497;84;20181;-88
2022/07/01 05:46:12;;;;;;;;;;;;;;;22.01;81.80;97717.02;1686591;84;20178;-84
2022/07/01 05:48:38;;;;;;;;;;;;;;;22.10;81.83;97723.95;1687419;83;20178;-84
2022/07/01 05:51:04;;;;;;;;;;;;;;;22.22;81.22;97727.97;1686303;83;21087;-83
2022/07/01 05:53:30;;;;;;;;;;;;;;;22.35;81.25;97730.56;1685874;83;20765;-83
2022/07/01 05:55:56;;;;;;;;;;;;;;;22.45;81.52;97724.45;1684113;83;20711;-83
2022/07/01 05:58:21;;;;;;;;;;;;;;;22.60;80.87;97729.67;1682710;84;20689;-83
2022/07/01 06:00:47;;;;;;;;;;;;;;;22.76;81.33;97722.89;1687187;83;20236;-84
2022/07/01 06:03:14;;;;;;;;;;;;;;;22.96;79.78;97727.00;1687143;83;21075;-84
2022/07/01 06:05:40;;;;;;;;;;;;;;;23.07;78.29;97715.54;1686611;84;20365;-89
2022/07/01 06:08:06;;;;;;;;;;;;;;;23.16;77.24;97716.12;1687638;83;20273;-89
2022/07/01 06:10:34;;;;;;;;;;;;;;;23.26;77.32;97710.55;1681085;84;20160;-88
2022/07/01 06:13:00;;;;;;;;;;;;;;;23.42;77.25;97707.64;1685184;83;20186;-88
2022/07/01 06:15:26;;;;;;;;;;;;;;;23.61;76.08;97707.56;1686106;84;21178;-89
2022/07/01 06:17:52;;;;;;;;;;;;;;;23.83;76.04;97701.14;1687651;83;20799;-89
2022/07/01 06:20:18;;;;;;;;;;;;;;;24.08;75.05;97698.70;1687211;84;20236;-88
2022/07/01 06:22:43;;;;;;;;;;;;;;;24.29;74.83;97700.95;1686929;84;20217;-90
2022/07/01 06:25:09;;;;;;;;;;;;;;;24.43;74.52;97700.33;1685416;83;20190;-88
2022/07/01 06:27:39;;;;;;;;;;;;;;;24.50;73.44;97701.80;1686084;83;21084;-89
2022/07/01 06:30:05;;;;;;;;;;;;;;;24.43;72.20;97702.50;1691553;83;20185;-89
2022/07/01 06:32:31;;;;;;;;;;;;;;;24.52;73.59;97701.41;1687603;83;20164;-88
2022/07/01 06:34:57;;;;;;;;;;;;;;;24.68;71.87;97703.37;1687914;83;20755;-88
2022/07/01 06:37:23;;;;;;;;;;;;;;;24.73;72.23;97696.11;1685085;84;20206;-90
2022/07/01 06:39:49;;;;;;;;;;;;;;;24.88;72.24;97690.13;1686217;83;21080;-89
2022/07/01 06:42:15;;;;;;;;;;;;;;;25.07;73.23;97701.01;1705732;82;20180;-84
2022/07/01 06:44:40;;;;;;;;;;;;;;;25.26;72.32;97699.37;1687939;84;20216;-88
2022/07/01 06:47:06;;;;;;;;;;;;;;;25.44;71.98;97698.72;1690618;84;20178;-89
2022/07/01 06:49:32;;;;;;;;;;;;;;;25.57;70.37;97693.88;1693163;84;20293;-87
2022/07/01 06:51:57;;;;;;;;;;;;;;;25.65;69.60;97696.69;1693451;83;21067;-89
2022/07/01 06:54:23;;;;;;;;;;;;;;;25.76;69.33;97690.64;1694091;84;20521;-90
2022/07/01 06:56:49;;;;;;;;;;;;;;;25.90;69.34;97693.50;1685709;83;20199;-84
2022/07/01 06:59:15;;;;;;;;;;;;;;;26.09;69.95;97688.23;1689823;83;20542;-83
2022/07/01 07:01:41;;;;;;;;;;;;;;;26.24;68.78;97682.95;1694672;83;20189;-84
2022/07/01 07:04:07;;;;;;;;;;;;;;;26.33;68.83;97684.76;1694593;83;21071;-83
2022/07/01 07:06:33;;;;;;;;;;;;;;;26.59;68.83;97685.66;1695245;84;20668;-83
2022/07/01 07:08:59;;;;;;;;;;;;;;;26.85;68.23;97683.91;1695009;84;20205;-84
2022/07/01 07:11:25;;;;;;;;;;;;;;;27.14;67.81;97683.95;1701610;83;20585;-84
2022/07/01 07:13:50;;;;;;;;;;;;;;;27.36;67.18;97680.58;1692437;84;20689;-84
2022/07/01 07:16:20;;;;;;;;;;;;;;;27.43;66.36;97684.72;1694749;84;21029;-84
2022/07/01 07:18:44;;;;;;;;;;;;;;;27.60;67.20;97676.15;1696145;83;20233;-83
2022/07/01 07:21:10;;;;;;;;;;;;;;;27.89;66.80;97676.32;1696529;83;20221;-84
2022/07/01 07:23:35;;;;;;;;;;;;;;;28.17;66.07;97673.23;1695955;83;20173;-88
2022/07/01 07:26:01;;;;;;;;;;;;;;;28.63;65.97;97670.25;1694510;84;20247;-89
2022/07/01 07:28:27;;;;;;;;;;;;;;;28.78;62.32;97672.32;1688333;83;21084;-84
2022/07/01 07:30:53;;;;;;;;;;;;;;;28.98;63.80;97669.84;1693814;84;20279;-84
2022/07/01 07:33:18;;;;;;;;;;;;;;;29.11;60.64;97669.52;1691624;83;20324;-84
2022/07/01 07:35:44;;;;;;;;;;;;;;;29.06;60.79;97667.98;1694032;84;20213;-84
2022/07/01 07:38:10;;;;;;;;;;;;;;;29.25;61.83;97663.83;1692620;83;20185;-84
2022/07/01 07:40:36;;;;;;;;;;;;;;;29.65;59.88;97665.66;1695115;84;21087;-84
2022/07/01 07:43:03;;;;;;;;;;;;;;;30.00;59.60;97666.67;1691981;83;20221;-84
2022/07/01 07:45:29;;;;;;;;;;;;;;;30.29;58.34;97669.14;1669658;84;20168;-84
2022/07/01 07:47:55;;;;;;;;;;;;;;;30.58;57.95;97670.32;1661716;84;20170;-84
2022/07/01 07:50:21;;;;;;;;;;;;;;;30.92;55.47;97665.26;1670947;84;20443;-84
2022/07/01 07:52:47;;;;;;;;;;;;;;;31.08;55.67;97672.40;1666600;84;21764;-84
2022/07/01 07:55:12;;;;;;;;;;;;;;;31.23;55.01;97668.80;1704866;82;20283;-85
2022/07/01 07:57:39;;;;;;;;;;;;;;;31.15;53.39;97666.69;1704036;82;20263;-85
2022/07/01 08:00:06;;;;;;;;;;;;;;;31.35;54.54;97672.98;1704603;83;20197;-85
2022/07/01 08:02:32;;;;;;;;;;;;;;;31.83;50.48;97672.54;1702663;82;20175;-85
2022/07/01 08:04:57;;;;;;;;;;;;;;;32.05;49.20;97670.70;1710760;82;21084;-85
2022/07/01 08:07:23;;;;;;;;;;;;;;;32.55;49.23;97665.66;1677945;83;20281;-85
2022/07/01 08:09:49;;;;;;;;;;;;;;;32.89;48.92;97674.95;1676765;84;20268;-85
2022/07/01 08:12:15;;;;;;;;;;;;;;;33.25;49.58;97663.66;1678938;84;20158;-85
2022/07/01 08:14:41;;;;;;;;;;;;;;;33.80;49.75;97661.22;1674349;84;20211;-85
2022/07/01 08:17:07;;;;;;;;;;;;;;;34.20;45.64;97658.91;1708087;82;21158;-85
2022/07/01 08:19:32;;;;;;;;;;;;;;;34.53;44.49;97670.65;1705414;82;20246;-85
2022/07/01 08:21:58;;;;;;;;;;;;;;;35.07;46.94;97666.34;1699968;82;20219;-85
2022/07/01 08:24:24;;;;;;;;;;;;;;;35.38;41.10;97664.30;1711338;83;20199;-85
2022/07/01 08:26:50;;;;;;;;;;;;;;;35.68;45.39;97661.49;1680088;83;20157;-85
2022/07/01 08:29:15;;;;;;;;;;;;;;;36.16;46.71;97660.18;1678772;83;21800;-85
2022/07/01 08:31:41;;;;;;;;;;;;;;;36.44;41.14;97661.94;1678706;84;20263;-90
2022/07/01 08:34:07;;;;;;;;;;;;;;;37.02;41.74;97664.74;1679343;84;20242;-90
2022/07/01 08:36:33;;;;;;;;;;;;;;;36.90;37.21;97660.77;1679305;84;20194;-91
2022/07/01 08:38:59;;;;;;;;;;;;;;;37.06;35.33;97663.17;1681439;84;20200;-90
2022/07/01 08:41:24;;;;;;;;;;;;;;;37.36;37.55;97665.80;1697717;83;21069;-90
2022/07/01 08:43:50;;;;;;;;;;;;;;;37.57;34.15;97665.50;1678330;83;20202;-91
2022/07/01 08:46:16;;;;;;;;;;;;;;;38.08;37.12;97665.69;1671113;84;20204;-91
2022/07/01 08:48:45;;;;;;;;;;;;;;;38.27;31.97;97669.30;1672436;84;20248;-92
2022/07/01 08:51:11;;;;;;;;;;;;;;;38.44;32.59;97669.10;1679710;84;20372;-91
2022/07/01 08:53:38;;;;;;;;;;;;;;;38.86;35.67;97667.73;1664365;83;21111;-90
2022/07/01 08:58:49;;;;;;;;;;;;;;;39.57;34.43;97672.58;1693934;83;20684;-91
2022/07/01 09:01:22;;;;;;;;;;;;;;;39.27;32.19;97669.61;1691628;84;20206;-91
2022/07/01 09:03:49;;;;;;;;;;;;;;;39.56;32.36;97673.82;1693723;83;20144;-90
2022/07/01 09:06:17;;;;;;;;;;;;;;;39.84;33.69;97671.61;1697516;84;21047;-91
2022/07/01 09:08:43;;;;;;;;;;;;;;;39.80;30.37;97675.25;1685783;84;20198;-91
2022/07/01 09:11:17;;;;;;;;;;;;;;;39.61;30.29;97672.56;1696263;83;20192;-91
2022/07/01 09:13:43;;;;;;;;;;;;;;;40.06;31.19;97673.48;1697875;83;20454;-90
2022/07/01 09:16:13;;;;;;;;;;;;;;;39.89;32.50;97678.01;1689820;83;20604;-92
2022/07/01 09:18:39;;;;;;;;;;;;;;;39.66;29.69;97679.62;1693003;83;21114;-91
2022/07/01 09:21:07;;;;;;;;;;;;;;;40.06;28.44;97686.88;1693382;83;20727;-86
2022/07/01 09:23:33;;;;;;;;;;;;;;;39.11;28.64;97687.76;1668726;84;20449;-86
2022/07/01 09:25:59;;;;;;;;;;;;;;;38.65;29.26;97691.39;1693140;84;20250;-86
2022/07/01 09:28:25;;;;;;;;;;;;;;;39.06;30.31;97686.23;1690693;84;20258;-86
2022/07/01 09:30:53;;;;;;;;;;;;;;;38.42;28.60;97688.61;1695517;83;21043;-86
2022/07/01 09:33:31;;;;;;;;;;;;;;;39.29;28.47;97686.91;1693048;83;20232;-86
2022/07/01 09:35:57;;;;;;;;;;;;;;;39.87;28.73;97689.06;1693258;84;20248;-86
2022/07/01 09:38:23;;;;;;;;;;;;;;;40.69;27.10;97693.22;1694208;83;20263;-86
2022/07/01 09:40:58;;;;;;;;;;;;;;;40.28;26.72;97693.77;1694754;84;20233;-86
2022/07/01 09:43:29;;;;;;;;;;;;;;;40.17;26.42;97692.78;1691489;84;21653;-86
2022/07/01 09:45:57;;;;;;;;;;;;;;;39.65;27.75;97695.83;1693415;84;20214;-86
2022/07/01 09:48:36;;;;;;;;;;;;;;;39.13;27.64;97700.83;1693689;83;20171;-86
2022/07/01 09:51:03;;;;;;;;;;;;;;;39.34;27.57;97700.42;1689768;84;20272;-85
2022/07/01 09:53:29;;;;;;;;;;;;;;;39.78;27.65;97697.01;1694092;84;20485;-86
2022/07/01 09:55:54;;;;;;;;;;;;;;;39.08;28.04;97698.64;1693591;84;21145;-90
2022/07/01 09:58:20;;;;;;;;;;;;;;;38.95;29.04;97698.06;1694528;83;20265;-90
2022/07/01 10:00:46;;;;;;;;;;;;;;;37.73;29.64;97702.73;1694994;84;20772;-91
2022/07/01 10:03:12;;;;;;;;;;;;;;;36.49;30.56;97697.84;1693857;83;20201;-91
2022/07/01 10:05:49;;;;;;;;;;;;;;;36.43;32.27;97689.99;1695470;84;20186;-89
2022/07/01 10:08:30;;;;;;;;;;;;;;;38.32;30.76;97696.96;1685591;83;21289;-91
2022/07/01 10:11:06;;;;;;;;;;;;;;;38.50;29.14;97691.27;1689747;84;20261;-91
2022/07/01 10:13:32;;;;;;;;;;;;;;;38.91;28.15;97690.38;1697351;84;20289;-90
2022/07/01 10:15:57;;;;;;;;;;;;;;;39.38;27.08;97690.31;1695102;84;20159;-91
2022/07/01 10:18:25;;;;;;;;;;;;;;;38.85;28.49;97690.87;1693749;83;20253;-89
2022/07/01 10:20:51;;;;;;;;;;;;;;;39.73;26.37;97690.58;1694730;83;21081;-91
2022/07/01 10:23:19;;;;;;;;;;;;;;;39.21;27.14;97684.27;1692868;83;20444;-90
2022/07/01 10:25:47;;;;;;;;;;;;;;;40.18;26.39;97678.74;1692788;84;20159;-89
2022/07/01 10:28:19;;;;;;;;;;;;;;;40.82;25.49;97680.90;1689712;83;20212;-89
2022/07/01 10:30:59;;;;;;;;;;;;;;;41.44;25.30;97684.06;1694742;83;20731;-92
2022/07/01 10:33:31;;;;;;;;;;;;;;;41.87;24.88;97676.63;1691677;84;22370;-92
2022/07/01 10:36:18;;;;;;;;;;;;;;;42.53;24.71;97663.62;1691230;84;20708;-92
2022/07/01 10:39:09;;;;;;;;;;;;;;;43.59;24.75;97664.42;1691075;83;20364;-92
2022/07/01 10:41:43;;;;;;;;;;;;;;;42.83;22.53;97667.66;1687792;83;20183;-92
2022/07/01 10:44:13;;;;;;;;;;;;;;;43.97;22.09;97662.88;1695065;84;20238;-91
2022/07/01 10:46:46;;;;;;;;;;;;;;;42.71;22.31;97657.58;1693136;83;21201;-91
2022/07/01 10:49:19;;;;;;;;;;;;;;;43.86;23.29;97663.64;1693535;84;20190;-92
2022/07/01 10:51:55;;;;;;;;;;;;;;;43.98;23.08;97657.30;1686791;83;20225;-91
2022/07/01 10:54:39;;;;;;;;;;;;;;;44.61;22.46;97658.34;1694177;84;20461;-90
2022/07/01 10:57:24;;;;;;;;;;;;;;;42.92;22.57;97653.22;1693514;83;20159;-92
2022/07/01 11:00:01;;;;;;;;;;;;;;;42.90;23.43;97657.98;1695209;84;21157;-92
2022/07/01 11:02:29;;;;;;;;;;;;;;;43.17;23.22;97665.20;1693943;84;20468;-91
2022/07/01 11:04:57;;;;;;;;;;;;;;;42.89;21.13;97652.14;1683753;84;20205;-90
2022/07/01 11:07:27;;;;;;;;;;;;;;;43.68;22.24;97649.80;1684799;84;20634;-92
2022/07/01 11:09:53;;;;;;;;;;;;;;;43.93;22.40;97655.20;1698057;83;20204;-92
2022/07/01 11:12:20;;;;;;;;;;;;;;;44.64;22.49;97653.82;1687622;83;21060;-87
2022/07/01 11:14:46;;;;;;;;;;;;;;;43.44;21.96;97643.86;1702183;83;20525;-87
2022/07/01 11:17:12;;;;;;;;;;;;;;;44.22;20.90;97647.66;1692678;84;20671;-87
2022/07/01 11:19:37;;;;;;;;;;;;;;;43.77;21.37;97648.18;1693656;83;20200;-87
2022/07/01 11:22:05;;;;;;;;;;;;;;;44.07;21.87;97642.80;1686006;83;20268;-87
2022/07/01 11:24:31;;;;;;;;;;;;;;;43.86;21.25;97631.61;1692052;84;21153;-87
2022/07/01 11:27:02;;;;;;;;;;;;;;;43.07;22.15;97635.33;1693240;84;20329;-87
2022/07/01 11:29:28;;;;;;;;;;;;;;;43.31;21.84;97628.59;1692653;83;20226;-87
2022/07/01 11:31:54;;;;;;;;;;;;;;;43.73;22.23;97631.27;1693205;83;20273;-87
2022/07/01 11:34:20;;;;;;;;;;;;;;;44.72;21.83;97623.44;1698652;84;20164;-87
2022/07/01 11:39:35;;;;;;;;;;;;;;;44.59;21.75;97617.45;1694050;84;20155;-91
2022/07/01 11:42:04;;;;;;;;;;;;;;;44.19;21.01;97617.31;1694172;83;20483;-91
2022/07/01 11:44:34;;;;;;;;;;;;;;;43.68;22.47;97626.34;1692497;83;20196;-90
2022/07/01 11:47:03;;;;;;;;;;;;;;;43.45;22.56;97622.61;1691496;83;20257;-91
2022/07/01 11:49:28;;;;;;;;;;;;;;;44.14;21.39;97615.21;1673793;84;21774;-93
2022/07/01 11:51:57;;;;;;;;;;;;;;;43.53;20.80;97614.35;1657893;84;20245;-92
2022/07/01 11:54:23;;;;;;;;;;;;;;;44.06;21.23;97622.05;1667778;84;20160;-92
2022/07/01 11:56:49;;;;;;;;;;;;;;;43.07;22.33;97613.95;1676937;84;20677;-92
2022/07/01 11:59:14;;;;;;;;;;;;;;;43.41;21.27;97614.16;1679807;84;20209;-92
2022/07/01 12:01:40;;;;;;;;;;;;;;;43.35;21.15;97612.08;1673343;84;21147;-92
2022/07/01 12:04:09;;;;;;;;;;;;;;;43.51;20.20;97609.16;1679215;85;20210;-93
2022/07/01 12:06:38;;;;;;;;;;;;;;;44.05;20.92;97604.80;1676857;85;20579;-92
2022/07/01 12:09:03;;;;;;;;;;;;;;;44.61;20.01;97604.89;1680388;83;20273;-88
2022/07/01 12:11:29;;;;;;;;;;;;;;;43.45;19.23;97606.93;1678799;84;20150;-94
2022/07/01 12:13:56;;;;;;;;;;;;;;;44.46;19.61;97605.12;1680014;83;21145;-93
2022/07/01 12:16:22;;;;;;;;;;;;;;;44.53;19.06;97596.71;1674737;84;20215;-92
2022/07/01 12:19:01;;;;;;;;;;;;;;;44.14;19.97;97598.09;1675742;84;20265;-92
2022/07/01 12:21:28;;;;;;;;;;;;;;;45.32;19.77;97593.73;1678205;84;20190;-92
2022/07/01 12:24:06;;;;;;;;;;;;;;;44.74;19.16;97594.34;1678484;84;20184;-90
2022/07/01 12:26:32;;;;;;;;;;;;;;;44.88;19.54;97593.28;1678768;85;21149;-92
2022/07/01 12:28:58;;;;;;;;;;;;;;;44.98;19.78;97597.45;1679668;84;20263;-91
2022/07/01 12:31:24;;;;;;;;;;;;;;;44.89;18.36;97593.41;1680099;84;20221;-92
2022/07/01 12:33:50;;;;;;;;;;;;;;;44.01;20.14;97594.91;1678908;85;20182;-92
2022/07/01 12:36:16;;;;;;;;;;;;;;;43.53;20.63;97589.47;1678871;84;20172;-92
2022/07/01 12:38:42;;;;;;;;;;;;;;;41.85;22.69;97594.51;1678219;84;21131;-92
2022/07/01 12:41:28;;;;;;;;;;;;;;;40.77;24.36;97592.95;1705328;83;20180;-92
2022/07/01 12:43:54;;;;;;;;;;;;;;;40.61;25.19;97594.11;1664130;83;20446;-92
2022/07/01 12:46:29;;;;;;;;;;;;;;;41.27;24.07;97595.70;1686003;85;20180;-92
2022/07/01 12:48:55;;;;;;;;;;;;;;;41.77;23.83;97587.70;1678295;83;20155;-91
2022/07/01 12:51:21;;;;;;;;;;;;;;;40.83;24.98;97590.17;1684897;84;21078;-91
2022/07/01 12:53:47;;;;;;;;;;;;;;;41.51;24.45;97595.52;1686171;83;20273;-92
2022/07/01 12:56:23;;;;;;;;;;;;;;;42.55;23.69;97589.89;1687450;84;20691;-87